Time;durP1;ratioP1;P1;durP2;ratioP2;P2;SDS_P1;SDS_P2;PMS_P1;PMS_P2;Temp;Humidity;BMP_temperature;BMP_pressure;BME280_temperature;BME280_humidity;BME280_pressure;Samples;Min_cycle;Max_cycle;Signal;HPM_P1;HPM_P2
2022/06/16 00:01:15;;;;;;;4.80;3.40;;;18.60;1.00;;;;;;5043750;28;20212;-53
2022/06/16 00:03:42;;;;;;;4.20;3.33;;;18.50;1.00;;;;;;5044688;28;20223;-54
2022/06/16 00:06:09;;;;;;;4.93;3.37;;;18.40;1.00;;;;;;5040961;28;20256;-54
2022/06/16 00:08:36;;;;;;;6.93;3.30;;;18.50;1.00;;;;;;5036005;28;20203;-55
2022/06/16 00:11:19;;;;;;;4.90;3.33;;;18.40;1.00;;;;;;5035908;28;20236;-53
2022/06/16 00:13:47;;;;;;;8.17;5.43;;;18.40;1.00;;;;;;5049492;28;20843;-53
2022/06/16 00:16:14;;;;;;;3.97;3.20;;;18.50;1.00;;;;;;5043782;28;20206;-54
2022/06/16 00:18:42;;;;;;;4.53;2.97;;;18.50;1.00;;;;;;5045726;28;20212;-54
2022/06/16 00:21:09;;;;;;;4.27;3.30;;;18.40;1.00;;;;;;5047994;28;20311;-54
2022/06/16 00:23:36;;;;;;;5.23;3.50;;;18.30;1.00;;;;;;5059749;28;20682;-53
2022/06/16 00:26:13;;;;;;;3.47;3.00;;;18.40;1.00;;;;;;5045660;28;20199;-53
2022/06/16 00:28:43;;;;;;;6.50;2.90;;;18.40;1.00;;;;;;5050604;28;20266;-54
2022/06/16 00:31:12;;;;;;;4.77;3.40;;;18.30;1.00;;;;;;5043254;28;20613;-54
2022/06/16 00:33:40;;;;;;;5.33;3.30;;;18.00;1.00;;;;;;5066643;28;20290;-54
2022/06/16 00:36:07;;;;;;;6.67;3.00;;;18.10;1.00;;;;;;5034868;28;20200;-55
2022/06/16 00:38:34;;;;;;;5.93;3.90;;;18.20;1.00;;;;;;5042869;28;20564;-53
2022/06/16 00:41:01;;;;;;;6.80;3.20;;;18.40;1.00;;;;;;5048166;28;20239;-54
2022/06/16 00:43:28;;;;;;;3.83;3.30;;;18.30;1.00;;;;;;5051050;28;20254;-55
2022/06/16 00:46:16;;;;;;;3.93;3.10;;;18.40;1.00;;;;;;5050599;28;20203;-55
2022/06/16 00:48:52;;;;;;;3.37;3.03;;;18.40;1.00;;;;;;5036520;28;20621;-55
2022/06/16 00:51:25;;;;;;;4.23;3.70;;;18.30;1.00;;;;;;5045728;28;20203;-55
2022/06/16 00:53:56;;;;;;;4.57;3.20;;;18.00;1.00;;;;;;5048719;28;20272;-54
2022/06/16 00:56:24;;;;;;;7.93;3.93;;;18.20;1.00;;;;;;5047129;28;20235;-54
2022/06/16 00:58:56;;;;;;;4.03;3.20;;;18.20;1.00;;;;;;5050063;28;20208;-53
2022/06/16 01:01:25;;;;;;;3.90;3.50;;;18.00;1.00;;;;;;5045820;28;21033;-54
2022/06/16 01:06:37;;;;;;;7.37;3.50;;;18.00;1.00;;;;;;5046212;28;20227;-54
2022/06/16 01:09:07;;;;;;;4.90;3.37;;;17.90;1.00;;;;;;5047344;28;20196;-55
2022/06/16 01:14:49;;;;;;;4.63;3.57;;;18.00;1.00;;;;;;5052128;28;20627;-55
2022/06/16 01:17:44;;;;;;;5.03;3.50;;;17.80;1.00;;;;;;5010508;28;20717;-54
2022/06/16 01:20:39;;;;;;;4.37;3.40;;;17.80;1.00;;;;;;5049286;28;20199;-54
2022/06/16 01:23:35;;;;;;;5.57;3.30;;;17.80;1.00;;;;;;5051489;28;20298;-54
2022/06/16 01:26:17;;;;;;;4.10;3.57;;;17.70;1.00;;;;;;5040675;28;20204;-54
2022/06/16 01:29:12;;;;;;;3.13;2.90;;;17.50;1.00;;;;;;5051370;28;20299;-54
2022/06/16 01:31:51;;;;;;;5.67;3.43;;;17.50;1.00;;;;;;5035805;28;20297;-55
2022/06/16 01:34:56;;;;;;;7.20;3.73;;;17.60;1.00;;;;;;5048245;28;20253;-55
2022/06/16 01:37:42;;;;;;;4.70;3.97;;;17.60;1.00;;;;;;5052306;28;20251;-54
2022/06/16 01:40:31;;;;;;;7.10;3.30;;;17.60;1.00;;;;;;5050792;28;20203;-55
2022/06/16 01:43:10;;;;;;;4.93;3.60;;;17.60;1.00;;;;;;5047995;28;20227;-55
2022/06/16 01:45:52;;;;;;;5.27;3.27;;;17.70;1.00;;;;;;5053547;28;20216;-55
2022/06/16 01:48:21;;;;;;;4.30;3.13;;;17.70;1.00;;;;;;5052121;28;20231;-54
2022/06/16 01:51:03;;;;;;;5.23;3.57;;;17.70;1.00;;;;;;5047788;28;20280;-55
2022/06/16 01:53:54;;;;;;;6.43;3.73;;;17.70;1.00;;;;;;5053422;28;20413;-55
2022/06/16 01:56:31;;;;;;;4.83;3.37;;;17.50;1.00;;;;;;5048622;28;20650;-54
2022/06/16 01:59:01;;;;;;;7.20;3.70;;;17.30;1.00;;;;;;5049542;28;20275;-54
2022/06/16 02:01:31;;;;;;;4.10;3.67;;;17.30;1.00;;;;;;5052185;28;20272;-54
2022/06/16 02:04:06;;;;;;;7.23;3.93;;;17.20;1.40;;;;;;5052656;28;20205;-54
2022/06/16 02:06:38;;;;;;;5.53;3.63;;;17.00;20.70;;;;;;5051441;28;20231;-54
2022/06/16 02:09:15;;;;;;;4.83;4.33;;;17.10;1.00;;;;;;5053015;28;20204;-54
2022/06/16 02:11:44;;;;;;;5.00;4.03;;;17.10;11.40;;;;;;5048995;28;20199;-54
2022/06/16 02:14:26;;;;;;;8.53;4.00;;;17.20;1.00;;;;;;5051223;28;20203;-53
2022/06/16 02:16:54;;;;;;;7.30;3.70;;;17.10;1.00;;;;;;5050004;28;20212;-53
2022/06/16 02:19:24;;;;;;;5.00;4.20;;;16.90;1.00;;;;;;5071030;28;20207;-56
2022/06/16 02:21:52;;;;;;;5.27;3.93;;;17.00;54.50;;;;;;5053442;28;20255;-54
2022/06/16 02:24:25;;;;;;;3.90;3.43;;;17.00;23.30;;;;;;5058941;28;20704;-54
2022/06/16 02:26:57;;;;;;;6.37;4.17;;;16.90;1.00;;;;;;5051730;28;20189;-55
2022/06/16 02:29:29;;;;;;;4.70;3.47;;;16.80;48.10;;;;;;5055872;28;20222;-55
2022/06/16 02:32:31;;;;;;;4.67;3.80;;;16.90;77.30;;;;;;5037107;28;20248;-54
2022/06/16 02:35:10;;;;;;;6.10;4.10;;;16.90;89.20;;;;;;5053477;28;20221;-54
2022/06/16 02:38:00;;;;;;;7.60;4.40;;;16.80;85.30;;;;;;5052331;28;20728;-54
2022/06/16 02:40:38;;;;;;;6.17;4.20;;;16.70;96.10;;;;;;5057222;28;20239;-52
2022/06/16 02:43:33;;;;;;;5.67;4.63;;;16.70;40.90;;;;;;5052419;28;20655;-54
2022/06/16 02:46:00;;;;;;;4.33;3.90;;;16.60;91.50;;;;;;5048282;28;20261;-54
2022/06/16 02:48:31;;;;;;;4.70;4.00;;;16.40;99.90;;;;;;5053571;28;20704;-55
2022/06/16 02:51:18;;;;;;;5.33;3.80;;;16.50;76.50;;;;;;5049438;28;20227;-54
2022/06/16 02:54:09;;;;;;;5.80;4.27;;;16.40;99.90;;;;;;5049445;28;20292;-55
2022/06/16 02:56:59;;;;;;;8.43;4.30;;;16.20;29.30;;;;;;5045804;28;20203;-55
2022/06/16 02:59:32;;;;;;;7.93;4.20;;;16.20;1.00;;;;;;5052822;28;20883;-54
2022/06/16 03:02:09;;;;;;;5.77;4.30;;;16.10;19.50;;;;;;5037035;28;20218;-54
2022/06/16 03:04:40;;;;;;;5.50;3.97;;;16.10;99.90;;;;;;5051357;28;20206;-55
2022/06/16 03:07:11;;;;;;;4.10;3.70;;;16.30;49.90;;;;;;5051128;28;20728;-54
2022/06/16 03:09:38;;;;;;;5.00;3.90;;;16.20;20.00;;;;;;5051987;28;20340;-54
2022/06/16 03:12:07;;;;;;;5.33;4.00;;;16.00;56.30;;;;;;5047164;28;20211;-54
2022/06/16 03:14:35;;;;;;;8.17;4.33;;;16.00;90.90;;;;;;5054185;28;20207;-54
2022/06/16 03:17:02;;;;;;;7.40;3.90;;;16.00;99.90;;;;;;5047746;28;20651;-54
2022/06/16 03:19:29;;;;;;;5.20;4.03;;;15.90;99.90;;;;;;5036446;28;20258;-55
2022/06/16 03:21:56;;;;;;;5.43;4.07;;;16.20;99.90;;;;;;5047520;28;20314;-54
2022/06/16 03:24:23;;;;;;;5.77;3.93;;;16.20;99.90;;;;;;5050170;28;20302;-54
2022/06/16 03:26:50;;;;;;;6.20;4.03;;;16.20;96.30;;;;;;5047164;28;20621;-55
2022/06/16 03:29:18;;;;;;;4.60;3.70;;;16.00;95.80;;;;;;5051095;28;20963;-55
2022/06/16 03:31:45;;;;;;;6.00;4.07;;;16.00;99.90;;;;;;5046381;28;20253;-55
2022/06/16 03:34:11;;;;;;;7.07;3.67;;;15.80;98.90;;;;;;5051608;28;20664;-54
2022/06/16 03:36:39;;;;;;;5.33;3.63;;;15.70;99.90;;;;;;5036055;28;20231;-54
2022/06/16 03:39:06;;;;;;;5.80;3.83;;;15.60;99.90;;;;;;5050317;28;20332;-54
2022/06/16 03:41:33;;;;;;;5.70;3.70;;;15.50;99.90;;;;;;5045811;28;20638;-54
2022/06/16 03:44:00;;;;;;;5.57;4.27;;;15.50;99.90;;;;;;5048211;28;20324;-54
2022/06/16 03:46:27;;;;;;;4.63;3.83;;;15.50;93.90;;;;;;5054219;28;20604;-54
2022/06/16 03:48:54;;;;;;;8.47;4.20;;;15.50;19.80;;;;;;5048587;28;20243;-55
2022/06/16 03:51:21;;;;;;;5.70;4.17;;;15.60;21.10;;;;;;5047050;28;20594;-54
2022/06/16 03:53:48;;;;;;;3.97;3.63;;;15.50;38.00;;;;;;5050614;28;20274;-54
2022/06/16 03:56:16;;;;;;;4.43;3.57;;;15.60;1.00;;;;;;5034994;28;20207;-54
2022/06/16 03:58:42;;;;;;;5.13;3.23;;;15.70;37.00;;;;;;5050507;28;20567;-54
2022/06/16 04:01:09;;;;;;;4.43;3.87;;;15.70;1.00;;;;;;5045381;28;20301;-54
2022/06/16 04:06:22;;;;;;;4.50;3.30;;;15.60;1.00;;;;;;5051458;28;20282;-54
2022/06/16 04:08:48;;;;;;;4.97;3.37;;;15.60;1.00;;;;;;5052949;28;20368;-55
2022/06/16 04:11:27;;;;;;;4.33;3.70;;;15.70;1.00;;;;;;5048027;28;20258;-54
2022/06/16 04:13:56;;;;;;;6.67;3.73;;;15.80;3.20;;;;;;5047703;28;20261;-54
2022/06/16 04:16:23;;;;;;;5.30;3.67;;;15.60;1.00;;;;;;5052066;28;20246;-54
2022/06/16 04:18:50;;;;;;;5.03;3.87;;;15.60;1.00;;;;;;5052282;28;20291;-55
2022/06/16 04:21:16;;;;;;;5.33;3.93;;;15.60;1.00;;;;;;5046230;28;20288;-54
2022/06/16 04:23:43;;;;;;;5.97;3.93;;;15.70;1.00;;;;;;5048016;28;20603;-54
2022/06/16 04:26:10;;;;;;;5.60;4.30;;;15.70;1.00;;;;;;5047197;28;20290;-55
2022/06/16 04:28:37;;;;;;;10.37;4.07;;;15.90;1.00;;;;;;5048442;28;20258;-55
2022/06/16 04:31:04;;;;;;;8.33;4.47;;;15.90;1.00;;;;;;5045794;28;20205;-54
2022/06/16 04:33:31;;;;;;;7.07;4.17;;;16.00;1.00;;;;;;5049407;28;20317;-54
2022/06/16 04:35:58;;;;;;;3.90;3.50;;;15.90;1.00;;;;;;5042995;28;20288;-55
2022/06/16 04:38:26;;;;;;;5.67;3.90;;;16.00;1.00;;;;;;5054767;28;20300;-56
2022/06/16 04:40:53;;;;;;;5.17;3.97;;;16.00;1.00;;;;;;5051718;28;20540;-56
2022/06/16 04:43:21;;;;;;;4.23;3.67;;;16.00;1.00;;;;;;5036557;28;20310;-54
2022/06/16 04:45:47;;;;;;;5.23;4.30;;;15.90;1.00;;;;;;5043355;28;20298;-55
2022/06/16 04:48:14;;;;;;;11.57;3.90;;;16.00;1.00;;;;;;5052878;28;20356;-55
2022/06/16 04:50:43;;;;;;;9.63;4.60;;;16.00;1.50;;;;;;5051148;28;20195;-55
2022/06/16 04:53:10;;;;;;;6.17;4.00;;;16.00;1.00;;;;;;5051185;28;20557;-56
2022/06/16 04:55:37;;;;;;;6.17;4.00;;;16.10;1.00;;;;;;5053944;28;20286;-54
2022/06/16 04:58:06;;;;;;;4.87;3.90;;;15.90;16.70;;;;;;5047630;28;20268;-56
2022/06/16 05:00:34;;;;;;;5.93;3.80;;;15.90;1.00;;;;;;5051316;28;20625;-57
2022/06/16 05:03:07;;;;;;;5.27;3.97;;;16.00;1.00;;;;;;5037887;28;20207;-55
2022/06/16 05:05:34;;;;;;;4.80;3.83;;;16.00;1.00;;;;;;5049130;28;20682;-54
2022/06/16 05:08:01;;;;;;;4.60;3.73;;;15.90;1.00;;;;;;5049642;28;20203;-54
2022/06/16 05:10:27;;;;;;;5.90;3.70;;;15.90;1.00;;;;;;5050790;28;20268;-56
2022/06/16 05:12:54;;;;;;;6.90;3.80;;;16.20;1.00;;;;;;5048593;28;20609;-55
2022/06/16 05:15:21;;;;;;;6.23;4.13;;;16.20;1.00;;;;;;5047369;28;20249;-55
2022/06/16 05:17:48;;;;;;;4.57;3.83;;;16.30;1.00;;;;;;5049106;28;20333;-56
2022/06/16 05:20:15;;;;;;;5.97;3.53;;;16.60;1.00;;;;;;5050295;28;20918;-56
2022/06/16 05:22:42;;;;;;;4.80;3.77;;;16.70;1.00;;;;;;5048018;28;20656;-56
2022/06/16 05:25:09;;;;;;;5.93;3.93;;;16.60;1.00;;;;;;5050238;28;21164;-55
2022/06/16 05:27:36;;;;;;;5.77;3.77;;;16.50;1.00;;;;;;5044711;28;20207;-56
2022/06/16 05:30:04;;;;;;;6.57;3.70;;;16.50;1.00;;;;;;5049025;28;20256;-55
2022/06/16 05:32:31;;;;;;;4.30;3.47;;;16.50;1.00;;;;;;5048556;28;20202;-55
2022/06/16 05:34:57;;;;;;;5.90;3.37;;;16.80;1.00;;;;;;5049603;28;20227;-55
2022/06/16 05:37:24;;;;;;;5.90;3.33;;;17.00;1.00;;;;;;5052428;28;20264;-56
2022/06/16 05:39:52;;;;;;;4.00;3.27;;;17.30;1.00;;;;;;5054341;28;20204;-53
2022/06/16 05:42:19;;;;;;;4.63;3.10;;;17.40;1.00;;;;;;5052603;28;20276;-55
2022/06/16 05:44:46;;;;;;;4.47;2.83;;;17.50;1.00;;;;;;5054346;28;20640;-53
2022/06/16 05:47:13;;;;;;;4.90;2.87;;;17.40;1.00;;;;;;5049129;28;20290;-56
2022/06/16 05:49:42;;;;;;;4.00;2.60;;;17.40;1.00;;;;;;5057029;28;20724;-54
2022/06/16 05:52:16;;;;;;;4.17;3.33;;;17.20;1.00;;;;;;5051393;28;20690;-55
2022/06/16 05:54:43;;;;;;;4.33;3.10;;;17.40;1.00;;;;;;5055408;28;20724;-54
2022/06/16 05:57:09;;;;;;;3.87;3.10;;;17.50;1.00;;;;;;5047354;28;20270;-55
2022/06/16 05:59:38;;;;;;;4.33;3.50;;;17.50;1.00;;;;;;5037883;28;20458;-54
2022/06/16 06:02:07;;;;;;;5.33;3.10;;;17.60;1.00;;;;;;5033662;28;20219;-56
2022/06/16 06:04:34;;;;;;;5.00;3.23;;;17.40;1.00;;;;;;5052427;28;20313;-55
2022/06/16 06:07:02;;;;;;;4.23;3.33;;;17.60;21.00;;;;;;5047893;28;20909;-53
2022/06/16 06:18:00;;;;;;;3.20;2.87;;;17.50;1.00;;;;;;5055452;28;20199;-54
2022/06/16 06:20:27;;;;;;;6.80;3.00;;;17.70;1.00;;;;;;5051609;28;20314;-54
2022/06/16 06:22:54;;;;;;;4.33;2.93;;;17.70;1.00;;;;;;5052319;28;20220;-54
2022/06/16 06:25:21;;;;;;;5.00;2.90;;;17.70;1.00;;;;;;5051561;28;20243;-56
2022/06/16 06:27:48;;;;;;;4.07;2.77;;;17.90;1.00;;;;;;5048730;28;20204;-55
2022/06/16 06:30:24;;;;;;;4.00;3.20;;;18.10;1.00;;;;;;5052594;28;20278;-56
2022/06/16 06:32:51;;;;;;;4.87;2.77;;;18.40;1.00;;;;;;5053848;28;20207;-55
2022/06/16 06:35:19;;;;;;;2.80;2.47;;;18.00;1.00;;;;;;5054881;28;20738;-53
2022/06/16 06:37:47;;;;;;;5.63;2.40;;;18.30;1.00;;;;;;5050323;28;20217;-54
2022/06/16 06:40:40;;;;;;;7.63;2.60;;;18.50;1.00;;;;;;5050170;28;20350;-54
2022/06/16 06:43:07;;;;;;;5.77;2.90;;;18.50;1.00;;;;;;5030820;28;20304;-56
2022/06/16 06:45:35;;;;;;;6.07;2.70;;;18.60;1.00;;;;;;5049729;28;20234;-58
2022/06/16 06:48:04;;;;;;;4.47;2.63;;;18.70;1.00;;;;;;5035906;28;20245;-54
2022/06/16 06:50:36;;;;;;;4.00;2.40;;;19.00;1.00;;;;;;5033476;28;20220;-55
2022/06/16 06:53:04;;;;;;;4.47;2.70;;;19.10;1.00;;;;;;5028393;28;20239;-54
2022/06/16 06:55:31;;;;;;;3.93;2.40;;;19.20;1.00;;;;;;5032993;28;20295;-55
2022/06/16 06:57:58;;;;;;;5.07;2.47;;;19.20;1.00;;;;;;5040502;28;20287;-55
2022/06/16 07:00:26;;;;;;;4.30;2.47;;;19.40;1.00;;;;;;5044038;28;20671;-53
2022/06/16 07:02:53;;;;;;;4.10;2.10;;;19.70;1.00;;;;;;5038034;28;20211;-56
2022/06/16 07:05:20;;;;;;;3.13;2.60;;;19.80;99.90;;;;;;5043350;28;20228;-57
2022/06/16 07:07:48;;;;;;;3.20;2.57;;;19.60;1.00;;;;;;5050575;28;20695;-54
2022/06/16 07:10:16;;;;;;;4.23;2.50;;;19.20;1.00;;;;;;5049117;28;20196;-55
2022/06/16 07:12:43;;;;;;;4.30;2.73;;;19.60;1.00;;;;;;5039380;28;20262;-54
2022/06/16 07:15:11;;;;;;;3.07;1.87;;;20.00;1.00;;;;;;5050398;28;20291;-53
2022/06/16 07:17:38;;;;;;;4.60;2.57;;;20.10;1.00;;;;;;5049641;28;20277;-54
2022/06/16 07:20:05;;;;;;;3.77;2.27;;;20.30;1.00;;;;;;5041605;28;20268;-53
2022/06/16 07:22:32;;;;;;;3.80;2.03;;;20.20;1.00;;;;;;5040448;28;20249;-54
2022/06/16 07:24:59;;;;;;;3.43;2.00;;;20.50;99.90;;;;;;5044445;28;20295;-52
2022/06/16 07:27:26;;;;;;;5.07;2.23;;;20.50;99.90;;;;;;5038977;28;20204;-54
2022/06/16 07:29:53;;;;;;;2.57;1.70;;;20.40;99.90;;;;;;5042366;28;20211;-54
2022/06/16 07:32:20;;;;;;;3.23;2.10;;;20.50;99.90;;;;;;5044903;28;20204;-54
2022/06/16 07:34:47;;;;;;;3.07;2.20;;;20.40;1.00;;;;;;5043443;28;20588;-53
2022/06/16 07:37:14;;;;;;;3.40;2.40;;;20.90;1.00;;;;;;5042094;28;20208;-52
2022/06/16 07:39:42;;;;;;;4.87;2.03;;;20.80;1.00;;;;;;5043675;28;20303;-53
2022/06/16 07:42:10;;;;;;;4.57;1.90;;;21.00;1.00;;;;;;5025974;28;20296;-54
2022/06/16 07:44:37;;;;;;;2.67;1.77;;;21.40;1.00;;;;;;5042963;28;20320;-54
2022/06/16 07:47:05;;;;;;;4.57;2.13;;;21.40;1.00;;;;;;5047489;28;20228;-54
2022/06/16 07:49:32;;;;;;;5.17;1.80;;;21.30;1.00;;;;;;5049909;28;20557;-54
2022/06/16 07:52:00;;;;;;;4.97;1.83;;;21.60;1.00;;;;;;5051483;28;20249;-54
2022/06/16 07:54:28;;;;;;;3.73;1.90;;;22.00;1.00;;;;;;5041470;28;20779;-54
2022/06/16 07:57:16;;;;;;;5.33;2.43;;;21.30;1.00;;;;;;5044966;28;20251;-55
2022/06/16 07:59:52;;;;;;;2.60;1.70;;;21.10;1.00;;;;;;5041654;28;20202;-54
2022/06/16 08:02:20;;;;;;;3.87;1.67;;;21.70;1.00;;;;;;5044450;28;20228;-54
2022/06/16 08:04:47;;;;;;;3.57;1.83;;;22.00;1.00;;;;;;5041943;28;20192;-55
2022/06/16 08:07:14;;;;;;;2.93;2.10;;;22.10;1.00;;;;;;5041243;28;20254;-54
2022/06/16 08:09:41;;;;;;;4.63;1.67;;;21.70;1.00;;;;;;5044780;28;20690;-54
2022/06/16 08:12:10;;;;;;;3.57;1.83;;;22.00;1.00;;;;;;5039352;28;20271;-54
2022/06/16 08:14:41;;;;;;;2.20;1.70;;;21.80;1.00;;;;;;5050344;28;20211;-54
2022/06/16 08:17:24;;;;;;;5.13;2.03;;;21.90;1.00;;;;;;5037870;28;20211;-53
2022/06/16 08:19:53;;;;;;;4.27;2.10;;;22.40;1.00;;;;;;5038569;28;20274;-61
2022/06/16 08:22:21;;;;;;;3.60;2.22;;;22.70;16.40;;;;;;5040057;28;21026;-64
2022/06/16 08:24:48;;;;;;;3.30;2.27;;;22.70;1.00;;;;;;5048441;28;20222;-62
2022/06/16 08:27:18;;;;;;;4.57;1.70;;;24.10;99.90;;;;;;5038823;28;20620;-63
2022/06/16 08:29:46;;;;;;;4.07;1.93;;;25.70;99.90;;;;;;5040177;28;20574;-64
2022/06/16 08:32:16;;;;;;;3.30;1.60;;;25.90;99.90;;;;;;5037670;28;20661;-64
2022/06/16 08:34:44;;;;;;;2.53;2.07;;;25.70;99.90;;;;;;5049715;28;20259;-66
2022/06/16 08:37:11;;;;;;;3.37;2.00;;;26.80;99.90;;;;;;5047758;28;20281;-64
2022/06/16 08:39:38;;;;;;;2.20;2.00;;;27.60;99.90;;;;;;5053185;28;20233;-63
2022/06/16 08:42:22;;;;;;;4.93;1.93;;;26.30;99.90;;;;;;5050187;28;20219;-63
2022/06/16 08:45:08;;;;;;;2.43;1.87;;;26.20;99.90;;;;;;5045450;28;20237;-64
2022/06/16 08:48:06;;;;;;;3.37;1.80;;;24.60;99.90;;;;;;5047272;28;20235;-63
2022/06/16 08:50:52;;;;;;;3.30;1.60;;;25.60;99.90;;;;;;5046718;28;20246;-64
2022/06/16 08:53:37;;;;;;;4.70;2.08;;;27.10;99.90;;;;;;5047120;28;20742;-65
2022/06/16 08:56:42;;;;;;;2.67;2.05;;;27.50;99.90;;;;;;5044461;28;20694;-55
2022/06/16 08:59:13;;;;;;;3.47;2.15;;;26.50;99.90;;;;;;5008991;28;20647;-54
2022/06/16 09:02:00;;;;;;;3.97;1.80;;;26.90;99.90;;;;;;5035852;28;20207;-60
2022/06/16 09:04:32;;;;;;;3.85;2.20;;;27.00;99.90;;;;;;5046602;28;20928;-52
2022/06/16 09:07:46;;;;;;;2.65;1.85;;;26.30;99.90;;;;;;5029590;28;20208;-55
2022/06/16 09:10:24;;;;;;;3.50;2.58;;;27.30;99.90;;;;;;5046795;28;20332;-53
2022/06/16 09:13:23;;;;;;;5.93;2.20;;;26.30;99.90;;;;;;5049807;28;20221;-53
2022/06/16 09:16:02;;;;;;;2.10;1.80;;;26.00;99.90;;;;;;5045988;28;20207;-53
2022/06/16 09:18:51;;;;;;;3.07;2.13;;;26.90;99.90;;;;;;5051478;28;20613;-52
2022/06/16 09:21:38;;;;;;;3.33;2.33;;;27.70;99.90;;;;;;5038143;28;20289;-52
2022/06/16 09:24:20;;;;;;;3.80;2.27;;;26.60;99.90;;;;;;5045128;28;21160;-54
2022/06/16 09:26:49;;;;;;;3.73;2.17;;;27.90;99.90;;;;;;5050137;28;20219;-52
2022/06/16 09:29:26;;;;;;;3.93;2.60;;;27.00;99.90;;;;;;5038342;28;20234;-56
2022/06/16 09:32:19;;;;;;;4.87;3.30;;;26.70;99.90;;;;;;5030411;28;20254;-52
2022/06/16 09:35:15;;;;;;;4.68;2.70;;;26.40;99.90;;;;;;5035523;28;20560;-55
2022/06/16 09:37:57;;;;;;;4.35;2.53;;;26.00;99.90;;;;;;5043810;28;20282;-54
2022/06/16 09:40:45;;;;;;;3.40;2.13;;;26.70;99.90;;;;;;5062109;28;20242;-54
2022/06/16 09:43:37;;;;;;;3.10;2.20;;;26.60;99.90;;;;;;5037753;28;20577;-55
2022/06/16 09:46:18;;;;;;;4.67;2.27;;;26.70;99.90;;;;;;5040250;28;20249;-56
2022/06/16 09:48:58;;;;;;;3.93;2.33;;;27.60;99.90;;;;;;5049377;28;20230;-57
2022/06/16 09:51:33;;;;;;;2.83;1.90;;;27.50;99.90;;;;;;5052913;28;20204;-55
2022/06/16 09:54:29;;;;;;;7.83;2.67;;;28.00;99.90;;;;;;5052130;28;20311;-55
2022/06/16 09:57:06;;;;;;;2.20;1.93;;;26.80;99.90;;;;;;5041374;28;20560;-54
2022/06/16 09:59:50;;;;;;;4.53;2.50;;;27.00;99.90;;;;;;5050895;28;20195;-54
2022/06/16 10:02:21;;;;;;;3.77;2.10;;;27.30;99.90;;;;;;5052978;28;20580;-56
2022/06/16 10:04:53;;;;;;;4.43;2.23;;;27.40;99.90;;;;;;5034063;28;20227;-54
2022/06/16 10:07:37;;;;;;;3.27;2.30;;;27.20;99.90;;;;;;5047127;28;20283;-53
2022/06/16 10:10:26;;;;;;;3.83;2.70;;;27.30;99.90;;;;;;5037494;28;20625;-55
2022/06/16 10:13:18;;;;;;;2.90;2.50;;;27.00;99.90;;;;;;5049864;28;20211;-53
2022/06/16 10:15:58;;;;;;;3.47;2.77;;;27.00;99.90;;;;;;5048406;28;20240;-53
2022/06/16 10:18:26;;;;;;;5.03;2.00;;;27.30;99.90;;;;;;5047837;28;20667;-53
2022/06/16 10:20:53;;;;;;;8.80;2.90;;;27.70;99.90;;;;;;5049965;28;20298;-52
2022/06/16 10:23:26;;;;;;;3.00;2.73;;;27.70;99.90;;;;;;5049405;28;20239;-54
2022/06/16 10:26:07;;;;;;;3.87;2.37;;;27.50;99.90;;;;;;5049787;28;20286;-53
2022/06/16 10:28:48;;;;;;;3.03;2.20;;;26.40;99.90;;;;;;5054600;28;20196;-54
2022/06/16 10:31:36;;;;;;;4.23;2.03;;;26.90;99.90;;;;;;5050114;28;20221;-53
2022/06/16 10:34:04;;;;;;;3.30;2.10;;;27.10;99.90;;;;;;5037776;28;20219;-54
2022/06/16 10:36:32;;;;;;;4.30;2.40;;;27.60;99.90;;;;;;5050132;28;20203;-53
2022/06/16 10:39:23;;;;;;;5.22;2.03;;;27.50;99.90;;;;;;5064765;28;20207;-53
2022/06/16 10:42:10;;;;;;;4.32;2.20;;;28.20;99.90;;;;;;5052194;28;20246;-53
2022/06/16 10:44:38;;;;;;;4.00;2.38;;;27.50;99.90;;;;;;5047183;28;20215;-54
2022/06/16 10:47:15;;;;;;;4.15;2.03;;;27.50;99.90;;;;;;5046885;28;20540;-54
2022/06/16 10:49:47;;;;;;;5.45;2.80;;;27.30;99.90;;;;;;5051403;28;20204;-53
2022/06/16 10:52:32;;;;;;;6.53;2.42;;;25.70;99.90;;;;;;5051157;28;20224;-54
2022/06/16 10:55:02;;;;;;;4.18;1.83;;;26.60;99.90;;;;;;5035135;28;20348;-54
2022/06/16 10:57:32;;;;;;;3.05;2.10;;;27.50;99.90;;;;;;5048282;28;20219;-56
2022/06/16 11:00:12;;;;;;;5.78;1.95;;;27.20;99.90;;;;;;5047220;28;20567;-54
2022/06/16 11:03:01;;;;;;;4.05;1.77;;;26.90;99.90;;;;;;5036877;28;20570;-53
2022/06/16 11:05:35;;;;;;;3.47;2.10;;;27.50;99.90;;;;;;5051924;28;20212;-53
2022/06/16 11:08:13;;;;;;;3.58;1.95;;;27.30;99.90;;;;;;5044851;28;20286;-54
2022/06/16 11:11:01;;;;;;;3.35;1.95;;;27.10;99.90;;;;;;5049813;28;20199;-52
2022/06/16 11:13:32;;;;;;;2.97;2.08;;;27.70;99.90;;;;;;5049242;28;20207;-52
2022/06/16 11:16:06;;;;;;;3.08;2.10;;;28.00;99.90;;;;;;5052760;28;20276;-54
2022/06/16 11:18:35;;;;;;;2.38;1.95;;;27.50;99.90;;;;;;5050794;28;20219;-54
2022/06/16 11:21:22;;;;;;;2.47;2.10;;;28.20;99.90;;;;;;5052925;28;20554;-52
2022/06/16 11:23:53;;;;;;;2.03;1.63;;;28.00;99.90;;;;;;5046634;28;20216;-54
2022/06/16 11:26:24;;;;;;;2.78;2.00;;;29.30;99.90;;;;;;5052820;28;20207;-54
2022/06/16 11:28:58;;;;;;;4.90;2.00;;;29.60;99.90;;;;;;5042435;28;20224;-55
2022/06/16 11:31:45;;;;;;;8.70;2.30;;;28.70;99.90;;;;;;5048282;28;20195;-55
2022/06/16 11:34:17;;;;;;;3.22;2.35;;;28.80;99.90;;;;;;5050185;28;20248;-52
2022/06/16 11:37:07;;;;;;;4.78;2.13;;;30.20;99.90;;;;;;5047722;28;20268;-52
2022/06/16 11:40:04;;;;;;;5.43;2.22;;;29.70;99.90;;;;;;5051052;28;20603;-55
2022/06/16 11:42:58;;;;;;;3.85;1.70;;;29.40;99.90;;;;;;5052536;28;20316;-54
2022/06/16 11:46:06;;;;;;;2.55;2.00;;;30.00;99.90;;;;;;5050366;28;20205;-54
2022/06/16 11:48:39;;;;;;;4.70;1.90;;;30.50;99.90;;;;;;5022382;28;20294;-54
2022/06/16 11:51:28;;;;;;;2.85;1.60;;;29.60;99.90;;;;;;5050072;28;20932;-53
2022/06/16 11:54:17;;;;;;;2.97;1.95;;;30.00;99.90;;;;;;5047233;28;20236;-56
2022/06/16 11:57:05;;;;;;;4.65;1.95;;;29.90;99.90;;;;;;5036973;28;20200;-52
2022/06/16 11:59:35;;;;;;;3.08;2.03;;;29.50;99.90;;;;;;5045926;28;20686;-55
2022/06/16 12:02:34;;;;;;;6.05;2.10;;;30.00;99.90;;;;;;5050437;28;20261;-55
2022/06/16 12:05:13;;;;;;;5.30;2.25;;;29.90;99.90;;;;;;5015675;28;20302;-54
2022/06/16 12:07:56;;;;;;;9.30;2.33;;;29.40;99.90;;;;;;5054360;28;20223;-53
2022/06/16 12:10:45;;;;;;;4.38;1.88;;;29.10;99.90;;;;;;5043871;28;20569;-53
2022/06/16 12:13:33;;;;;;;3.13;1.80;;;28.50;99.90;;;;;;5048664;28;20209;-53
2022/06/16 12:16:20;;;;;;;3.88;1.80;;;28.80;99.90;;;;;;5044248;28;20204;-54
2022/06/16 12:19:39;;;;;;;5.43;2.00;;;29.10;99.90;;;;;;5035484;28;20237;-53
2022/06/16 12:22:31;;;;;;;5.28;2.13;;;28.50;99.90;;;;;;5046425;28;20196;-54
2022/06/16 12:25:14;;;;;;;2.67;1.83;;;28.40;99.90;;;;;;5044444;28;20299;-53
2022/06/16 12:27:49;;;;;;;2.65;1.83;;;29.80;99.90;;;;;;5033673;28;20216;-53
2022/06/16 12:30:19;;;;;;;3.15;1.88;;;29.90;99.90;;;;;;5046092;28;20281;-51
2022/06/16 12:33:08;;;;;;;2.25;1.73;;;29.80;99.90;;;;;;5044746;28;20679;-54
2022/06/16 12:36:16;;;;;;;2.05;1.55;;;29.30;99.90;;;;;;5038191;28;20619;-53
2022/06/16 12:39:06;;;;;;;6.18;2.00;;;30.10;99.90;;;;;;4953665;28;20226;-55
2022/06/16 12:41:40;;;;;;;2.95;1.80;;;29.80;99.90;;;;;;4954038;28;20202;-52
2022/06/16 12:44:42;;;;;;;3.47;2.28;;;29.10;99.90;;;;;;4951444;28;20222;-54
2022/06/16 12:47:27;;;;;;;3.85;2.17;;;29.60;99.90;;;;;;4951797;28;21031;-55
2022/06/16 12:50:13;;;;;;;2.60;2.08;;;29.00;99.90;;;;;;4950986;28;20561;-56
2022/06/16 12:52:43;;;;;;;4.78;2.13;;;28.70;99.90;;;;;;4951874;28;20258;-55
2022/06/16 12:55:15;;;;;;;3.28;1.95;;;28.40;99.90;;;;;;4946392;28;20725;-56
2022/06/16 12:58:09;;;;;;;3.30;2.33;;;28.70;99.90;;;;;;4952360;28;20567;-54
2022/06/16 13:00:41;;;;;;;2.75;2.00;;;27.80;99.90;;;;;;4940768;28;20619;-54
2022/06/16 13:03:27;;;;;;;4.30;2.30;;;27.80;99.90;;;;;;4943317;28;20214;-55
2022/06/16 13:05:57;;;;;;;2.45;1.80;;;28.40;99.90;;;;;;4952881;28;20277;-53
2022/06/16 13:08:32;;;;;;;3.35;2.00;;;28.10;99.90;;;;;;4945568;28;20222;-53
2022/06/16 13:11:04;;;;;;;3.95;2.55;;;28.00;99.90;;;;;;4951492;28;20226;-55
2022/06/16 13:13:40;;;;;;;3.30;1.80;;;27.80;99.90;;;;;;5031336;28;20207;-53
2022/06/16 13:16:09;;;;;;;4.32;1.88;;;28.10;99.90;;;;;;5040376;28;20286;-54
2022/06/16 13:18:50;;;;;;;3.47;1.92;;;29.10;99.90;;;;;;5038563;28;20298;-54
2022/06/16 13:21:25;;;;;;;2.63;2.13;;;28.50;99.90;;;;;;5036670;28;20318;-55
2022/06/16 13:24:21;;;;;;;3.33;2.30;;;28.10;99.90;;;;;;5049599;28;20251;-54
2022/06/16 13:27:06;;;;;;;3.95;2.03;;;28.00;99.90;;;;;;5049395;28;20203;-56
2022/06/16 13:29:42;;;;;;;3.63;2.10;;;28.90;99.90;;;;;;5049862;28;20646;-53
2022/06/16 13:32:33;;;;;;;2.08;1.85;;;28.80;99.90;;;;;;5047845;28;20227;-53
2022/06/16 13:35:02;;;;;;;3.67;2.00;;;28.60;99.90;;;;;;5050250;28;20356;-53
2022/06/16 13:37:42;;;;;;;3.17;1.77;;;28.80;99.90;;;;;;5046787;28;20223;-52
2022/06/16 13:40:09;;;;;;;2.83;1.73;;;28.40;99.90;;;;;;5031138;28;20254;-53
2022/06/16 13:42:51;;;;;;;4.05;2.42;;;28.70;99.90;;;;;;5036858;28;20961;-54
2022/06/16 13:45:30;;;;;;;3.28;2.20;;;29.20;99.90;;;;;;5037587;28;20224;-53
2022/06/16 13:48:12;;;;;;;3.00;2.30;;;27.90;99.90;;;;;;5042753;28;20678;-54